sensor_id;sensor_type;location;lat;lon;timestamp;pressure;altitude;pressure_sealevel;temperature;humidity
71105;BME280;58760;48.716;8.962;2023-08-06T00:01:25;95763.56;;;13.43;100.00
71105;BME280;58760;48.716;8.962;2023-08-06T00:03:50;95762.53;;;13.50;100.00
71105;BME280;58760;48.716;8.962;2023-08-06T00:06:16;95755.38;;;13.44;100.00
71105;BME280;58760;48.716;8.962;2023-08-06T00:08:41;95746.59;;;13.37;100.00
71105;BME280;58760;48.716;8.962;2023-08-06T00:11:07;95764.41;;;13.43;100.00
71105;BME280;58760;48.716;8.962;2023-08-06T00:13:32;95754.53;;;13.57;100.00
71105;BME280;58760;48.716;8.962;2023-08-06T00:16:24;95748.00;;;13.46;100.00
71105;BME280;58760;48.716;8.962;2023-08-06T00:18:49;95756.66;;;13.29;100.00
71105;BME280;58760;48.716;8.962;2023-08-06T00:21:14;95751.94;;;13.31;100.00
71105;BME280;58760;48.716;8.962;2023-08-06T00:23:41;95770.00;;;13.29;100.00
71105;BME280;58760;48.716;8.962;2023-08-06T00:26:06;95764.88;;;13.21;100.00
71105;BME280;58760;48.716;8.962;2023-08-06T00:28:32;95762.00;;;13.29;100.00
71105;BME280;58760;48.716;8.962;2023-08-06T00:30:57;95761.00;;;13.10;100.00
71105;BME280;58760;48.716;8.962;2023-08-06T00:33:23;95762.41;;;13.19;100.00
71105;BME280;58760;48.716;8.962;2023-08-06T00:35:49;95750.72;;;13.20;100.00
71105;BME280;58760;48.716;8.962;2023-08-06T00:38:14;95742.72;;;13.20;100.00
71105;BME280;58760;48.716;8.962;2023-08-06T00:40:39;95734.97;;;13.19;100.00
71105;BME280;58760;48.716;8.962;2023-08-06T00:43:05;95729.63;;;13.25;100.00
71105;BME280;58760;48.716;8.962;2023-08-06T00:45:34;95723.91;;;13.15;100.00
71105;BME280;58760;48.716;8.962;2023-08-06T00:48:00;95725.75;;;13.15;100.00
71105;BME280;58760;48.716;8.962;2023-08-06T00:50:26;95722.25;;;13.14;100.00
71105;BME280;58760;48.716;8.962;2023-08-06T00:52:52;95716.09;;;13.14;100.00
71105;BME280;58760;48.716;8.962;2023-08-06T00:55:17;95714.06;;;13.09;100.00
71105;BME280;58760;48.716;8.962;2023-08-06T00:57:43;95709.56;;;13.03;100.00
71105;BME280;58760;48.716;8.962;2023-08-06T01:00:09;95698.91;;;13.09;100.00
71105;BME280;58760;48.716;8.962;2023-08-06T01:02:35;95703.19;;;13.10;100.00
71105;BME280;58760;48.716;8.962;2023-08-06T01:05:00;95709.13;;;13.06;100.00
71105;BME280;58760;48.716;8.962;2023-08-06T01:13:41;95709.78;;;12.75;100.00
71105;BME280;58760;48.716;8.962;2023-08-06T01:16:09;95714.28;;;12.81;100.00
71105;BME280;58760;48.716;8.962;2023-08-06T01:18:35;95706.31;;;12.75;100.00
71105;BME280;58760;48.716;8.962;2023-08-06T01:21:02;95708.19;;;12.68;100.00
71105;BME280;58760;48.716;8.962;2023-08-06T01:23:28;95710.00;;;12.61;100.00
71105;BME280;58760;48.716;8.962;2023-08-06T01:28:34;95706.72;;;12.65;100.00
71105;BME280;58760;48.716;8.962;2023-08-06T01:31:07;95704.28;;;12.64;100.00
71105;BME280;58760;48.716;8.962;2023-08-06T01:33:38;95693.63;;;12.70;100.00
71105;BME280;58760;48.716;8.962;2023-08-06T01:36:07;95700.97;;;12.68;100.00
71105;BME280;58760;48.716;8.962;2023-08-06T01:38:33;95707.13;;;12.55;100.00
71105;BME280;58760;48.716;8.962;2023-08-06T01:40:58;95702.63;;;12.49;100.00
71105;BME280;58760;48.716;8.962;2023-08-06T01:43:23;95706.31;;;12.55;100.00
71105;BME280;58760;48.716;8.962;2023-08-06T01:45:49;95696.06;;;12.58;100.00
71105;BME280;58760;48.716;8.962;2023-08-06T01:48:14;95706.13;;;12.56;100.00
71105;BME280;58760;48.716;8.962;2023-08-06T01:50:39;95704.47;;;12.49;100.00
71105;BME280;58760;48.716;8.962;2023-08-06T01:53:05;95701.22;;;12.40;100.00
71105;BME280;58760;48.716;8.962;2023-08-06T01:55:30;95694.47;;;12.31;100.00
71105;BME280;58760;48.716;8.962;2023-08-06T01:57:56;95687.09;;;12.27;100.00
71105;BME280;58760;48.716;8.962;2023-08-06T02:00:21;95685.66;;;12.24;100.00
71105;BME280;58760;48.716;8.962;2023-08-06T02:02:46;95678.28;;;12.26;100.00
71105;BME280;58760;48.716;8.962;2023-08-06T02:05:12;95683.00;;;12.31;100.00
71105;BME280;58760;48.716;8.962;2023-08-06T02:07:37;95666.22;;;12.37;100.00
71105;BME280;58760;48.716;8.962;2023-08-06T02:10:03;95662.31;;;12.39;100.00
71105;BME280;58760;48.716;8.962;2023-08-06T02:12:28;95663.34;;;12.45;100.00
71105;BME280;58760;48.716;8.962;2023-08-06T02:14:53;95658.03;;;12.45;100.00
71105;BME280;58760;48.716;8.962;2023-08-06T02:17:19;95660.88;;;12.43;100.00
71105;BME280;58760;48.716;8.962;2023-08-06T02:19:44;95643.91;;;12.44;100.00
71105;BME280;58760;48.716;8.962;2023-08-06T02:22:09;95647.81;;;12.42;100.00
71105;BME280;58760;48.716;8.962;2023-08-06T02:24:35;95642.25;;;12.43;100.00
71105;BME280;58760;48.716;8.962;2023-08-06T02:27:00;95643.50;;;12.41;100.00
71105;BME280;58760;48.716;8.962;2023-08-06T02:29:25;95636.94;;;12.43;100.00
71105;BME280;58760;48.716;8.962;2023-08-06T02:31:51;95638.78;;;12.43;100.00
71105;BME280;58760;48.716;8.962;2023-08-06T02:34:16;95635.72;;;12.46;100.00
71105;BME280;58760;48.716;8.962;2023-08-06T02:36:42;95642.88;;;12.45;100.00
71105;BME280;58760;48.716;8.962;2023-08-06T02:39:07;95633.44;;;12.49;100.00
71105;BME280;58760;48.716;8.962;2023-08-06T02:41:32;95637.53;;;12.52;100.00
71105;BME280;58760;48.716;8.962;2023-08-06T02:43:58;95622.41;;;12.52;100.00
71105;BME280;58760;48.716;8.962;2023-08-06T02:46:23;95624.03;;;12.53;100.00
71105;BME280;58760;48.716;8.962;2023-08-06T02:48:48;95628.94;;;12.56;100.00
71105;BME280;58760;48.716;8.962;2023-08-06T02:51:14;95613.16;;;12.62;100.00
71105;BME280;58760;48.716;8.962;2023-08-06T02:53:39;95606.81;;;12.63;100.00
71105;BME280;58760;48.716;8.962;2023-08-06T02:56:04;95618.91;;;12.58;100.00
71105;BME280;58760;48.716;8.962;2023-08-06T02:58:30;95623.00;;;12.68;100.00
71105;BME280;58760;48.716;8.962;2023-08-06T03:01:03;95616.66;;;12.62;100.00
71105;BME280;58760;48.716;8.962;2023-08-06T03:03:32;95615.44;;;12.65;100.00
71105;BME280;58760;48.716;8.962;2023-08-06T03:05:58;95607.81;;;12.75;100.00
71105;BME280;58760;48.716;8.962;2023-08-06T03:08:24;95602.25;;;12.89;100.00
71105;BME280;58760;48.716;8.962;2023-08-06T03:10:50;95595.09;;;12.90;100.00
71105;BME280;58760;48.716;8.962;2023-08-06T03:13:19;95597.13;;;12.88;100.00
71105;BME280;58760;48.716;8.962;2023-08-06T03:15:55;95591.38;;;12.91;100.00
71105;BME280;58760;48.716;8.962;2023-08-06T03:18:21;95590.75;;;12.95;100.00
71105;BME280;58760;48.716;8.962;2023-08-06T03:20:46;95585.44;;;12.95;100.00
71105;BME280;58760;48.716;8.962;2023-08-06T03:23:12;95581.75;;;12.96;100.00
71105;BME280;58760;48.716;8.962;2023-08-06T03:25:37;95593.41;;;13.02;100.00
71105;BME280;58760;48.716;8.962;2023-08-06T03:28:02;95586.41;;;13.01;100.00
71105;BME280;58760;48.716;8.962;2023-08-06T03:30:28;95587.47;;;13.00;100.00
71105;BME280;58760;48.716;8.962;2023-08-06T03:32:53;95596.03;;;13.15;100.00
71105;BME280;58760;48.716;8.962;2023-08-06T03:35:18;95601.38;;;13.15;100.00
71105;BME280;58760;48.716;8.962;2023-08-06T03:37:44;95598.47;;;13.23;100.00
71105;BME280;58760;48.716;8.962;2023-08-06T03:40:10;95593.53;;;13.20;100.00
71105;BME280;58760;48.716;8.962;2023-08-06T03:42:35;95591.06;;;13.25;100.00
71105;BME280;58760;48.716;8.962;2023-08-06T03:45:00;95598.66;;;13.22;100.00
71105;BME280;58760;48.716;8.962;2023-08-06T03:47:26;95599.66;;;13.27;100.00
71105;BME280;58760;48.716;8.962;2023-08-06T03:49:51;95604.81;;;13.22;100.00
71105;BME280;58760;48.716;8.962;2023-08-06T03:52:16;95598.66;;;13.28;100.00
71105;BME280;58760;48.716;8.962;2023-08-06T03:54:42;95584.44;;;13.41;100.00
71105;BME280;58760;48.716;8.962;2023-08-06T03:57:08;95585.88;;;13.37;100.00
71105;BME280;58760;48.716;8.962;2023-08-06T03:59:34;95582.38;;;13.36;100.00
71105;BME280;58760;48.716;8.962;2023-08-06T04:01:59;95588.56;;;13.30;100.00
71105;BME280;58760;48.716;8.962;2023-08-06T04:04:25;95591.44;;;13.35;100.00
71105;BME280;58760;48.716;8.962;2023-08-06T04:06:50;95595.13;;;13.34;100.00
71105;BME280;58760;48.716;8.962;2023-08-06T04:09:15;95603.72;;;13.36;100.00
71105;BME280;58760;48.716;8.962;2023-08-06T04:11:41;95611.03;;;13.47;100.00
71105;BME280;58760;48.716;8.962;2023-08-06T04:14:06;95618.41;;;13.52;100.00
71105;BME280;58760;48.716;8.962;2023-08-06T04:16:32;95613.72;;;13.47;100.00
71105;BME280;58760;48.716;8.962;2023-08-06T04:18:57;95612.22;;;13.58;100.00
71105;BME280;58760;48.716;8.962;2023-08-06T04:21:23;95609.72;;;13.63;100.00
71105;BME280;58760;48.716;8.962;2023-08-06T04:23:49;95609.72;;;13.63;100.00
71105;BME280;58760;48.716;8.962;2023-08-06T04:26:14;95611.44;;;13.51;100.00
71105;BME280;58760;48.716;8.962;2023-08-06T04:28:39;95615.53;;;13.53;100.00
71105;BME280;58760;48.716;8.962;2023-08-06T04:31:05;95613.88;;;13.59;100.00
71105;BME280;58760;48.716;8.962;2023-08-06T04:33:30;95614.84;;;13.65;100.00
71105;BME280;58760;48.716;8.962;2023-08-06T04:35:56;95611.78;;;13.61;100.00
71105;BME280;58760;48.716;8.962;2023-08-06T04:38:24;95614.63;;;13.66;100.00
71105;BME280;58760;48.716;8.962;2023-08-06T04:40:50;95620.84;;;13.53;100.00
71105;BME280;58760;48.716;8.962;2023-08-06T04:43:15;95616.31;;;13.60;100.00
71105;BME280;58760;48.716;8.962;2023-08-06T04:45:48;95628.00;;;13.59;100.00
71105;BME280;58760;48.716;8.962;2023-08-06T04:48:14;95621.06;;;13.52;100.00
71105;BME280;58760;48.716;8.962;2023-08-06T04:50:47;95623.28;;;13.61;100.00
71105;BME280;58760;48.716;8.962;2023-08-06T04:53:12;95628.00;;;13.59;100.00
71105;BME280;58760;48.716;8.962;2023-08-06T04:55:38;95620.84;;;13.53;100.00
71105;BME280;58760;48.716;8.962;2023-08-06T04:58:03;95615.53;;;13.53;100.00
71105;BME280;58760;48.716;8.962;2023-08-06T05:00:29;95622.88;;;13.58;100.00
71105;BME280;58760;48.716;8.962;2023-08-06T05:02:54;95614.22;;;13.62;100.00
71105;BME280;58760;48.716;8.962;2023-08-06T05:05:19;95621.19;;;13.63;100.00
71105;BME280;58760;48.716;8.962;2023-08-06T05:07:47;95620.19;;;13.65;100.00
71105;BME280;58760;48.716;8.962;2023-08-06T05:10:13;95616.66;;;13.71;100.00
71105;BME280;58760;48.716;8.962;2023-08-06T05:12:38;95612.56;;;13.68;100.00
71105;BME280;58760;48.716;8.962;2023-08-06T05:15:04;95611.44;;;13.82;100.00
71105;BME280;58760;48.716;8.962;2023-08-06T05:17:29;95597.81;;;13.97;100.00
71105;BME280;58760;48.716;8.962;2023-08-06T05:19:55;95600.47;;;13.97;100.00
71105;BME280;58760;48.716;8.962;2023-08-06T05:22:20;95600.88;;;14.00;100.00
71105;BME280;58760;48.716;8.962;2023-08-06T05:24:45;95608.25;;;13.98;98.12
71105;BME280;58760;48.716;8.962;2023-08-06T05:27:11;95600.59;;;14.08;98.06
71105;BME280;58760;48.716;8.962;2023-08-06T05:29:36;95603.09;;;14.03;96.67
71105;BME280;58760;48.716;8.962;2023-08-06T05:32:02;95608.38;;;14.10;95.81
71105;BME280;58760;48.716;8.962;2023-08-06T05:34:27;95608.16;;;14.11;96.53
71105;BME280;58760;48.716;8.962;2023-08-06T05:36:52;95614.75;;;14.09;98.32
71105;BME280;58760;48.716;8.962;2023-08-06T05:39:18;95623.13;;;14.12;95.43
71105;BME280;58760;48.716;8.962;2023-08-06T05:41:43;95636.53;;;14.06;95.05
71105;BME280;58760;48.716;8.962;2023-08-06T05:44:08;95635.09;;;14.03;94.04
71105;BME280;58760;48.716;8.962;2023-08-06T05:46:34;95638.22;;;14.00;93.82
71105;BME280;58760;48.716;8.962;2023-08-06T05:48:59;95630.41;;;13.99;95.06
71105;BME280;58760;48.716;8.962;2023-08-06T05:51:26;95641.84;;;14.06;95.74
71105;BME280;58760;48.716;8.962;2023-08-06T05:53:52;95635.75;;;13.99;95.55
71105;BME280;58760;48.716;8.962;2023-08-06T05:56:17;95635.97;;;13.97;94.70
71105;BME280;58760;48.716;8.962;2023-08-06T05:58:43;95646.41;;;13.99;95.91
71105;BME280;58760;48.716;8.962;2023-08-06T06:01:08;95639.63;;;14.03;95.01
71105;BME280;58760;48.716;8.962;2023-08-06T06:03:33;95632.00;;;14.06;96.22
71105;BME280;58760;48.716;8.962;2023-08-06T06:06:00;95631.41;;;14.04;93.87
71105;BME280;58760;48.716;8.962;2023-08-06T06:08:26;95632.84;;;14.07;95.45
71105;BME280;58760;48.716;8.962;2023-08-06T06:10:51;95631.53;;;14.16;96.52
71105;BME280;58760;48.716;8.962;2023-08-06T06:13:17;95632.50;;;14.22;95.71
71105;BME280;58760;48.716;8.962;2023-08-06T06:15:42;95629.50;;;14.11;95.99
71105;BME280;58760;48.716;8.962;2023-08-06T06:18:07;95634.13;;;14.23;97.08
71105;BME280;58760;48.716;8.962;2023-08-06T06:20:33;95644.38;;;14.26;95.63
71105;BME280;58760;48.716;8.962;2023-08-06T06:22:59;95646.66;;;14.22;96.03
71105;BME280;58760;48.716;8.962;2023-08-06T06:25:24;95653.22;;;14.26;96.47
71105;BME280;58760;48.716;8.962;2023-08-06T06:27:49;95651.56;;;14.25;95.86
71105;BME280;58760;48.716;8.962;2023-08-06T06:30:15;95661.16;;;14.33;96.30
71105;BME280;58760;48.716;8.962;2023-08-06T06:32:40;95665.88;;;14.31;95.40
71105;BME280;58760;48.716;8.962;2023-08-06T06:35:06;95659.72;;;14.37;95.18
71105;BME280;58760;48.716;8.962;2023-08-06T06:37:32;95662.56;;;14.42;95.44
71105;BME280;58760;48.716;8.962;2023-08-06T06:39:57;95663.81;;;14.39;94.84
71105;BME280;58760;48.716;8.962;2023-08-06T06:42:22;95667.31;;;14.40;95.02
71105;BME280;58760;48.716;8.962;2023-08-06T06:44:48;95673.88;;;14.31;94.25
71105;BME280;58760;48.716;8.962;2023-08-06T06:47:13;95668.19;;;14.34;96.29
71105;BME280;58760;48.716;8.962;2023-08-06T06:49:39;95669.81;;;14.28;95.89
71105;BME280;58760;48.716;8.962;2023-08-06T06:52:05;95676.25;;;14.21;97.34
71105;BME280;58760;48.716;8.962;2023-08-06T06:54:30;95669.47;;;14.18;98.33
71105;BME280;58760;48.716;8.962;2023-08-06T06:56:56;95666.06;;;14.11;98.74
71105;BME280;58760;48.716;8.962;2023-08-06T06:59:21;95663.59;;;14.09;98.79
71105;BME280;58760;48.716;8.962;2023-08-06T07:01:46;95663.25;;;13.99;99.76
71105;BME280;58760;48.716;8.962;2023-08-06T07:04:12;95663.84;;;14.01;100.00
71105;BME280;58760;48.716;8.962;2023-08-06T07:06:37;95659.50;;;14.07;100.00
71105;BME280;58760;48.716;8.962;2023-08-06T07:09:02;95660.38;;;14.01;100.00
71105;BME280;58760;48.716;8.962;2023-08-06T07:11:28;95665.78;;;13.88;100.00
71105;BME280;58760;48.716;8.962;2023-08-06T07:13:57;95665.53;;;13.96;100.00
71105;BME280;58760;48.716;8.962;2023-08-06T07:16:24;95670.25;;;13.94;100.00
71105;BME280;58760;48.716;8.962;2023-08-06T07:18:51;95674.31;;;14.03;100.00
71105;BME280;58760;48.716;8.962;2023-08-06T07:21:16;95667.31;;;14.02;100.00
71105;BME280;58760;48.716;8.962;2023-08-06T07:23:41;95669.56;;;14.05;100.00
71105;BME280;58760;48.716;8.962;2023-08-06T07:26:07;95683.28;;;14.08;100.00
71105;BME280;58760;48.716;8.962;2023-08-06T07:28:32;95687.00;;;14.07;100.00
71105;BME280;58760;48.716;8.962;2023-08-06T07:30:58;95692.50;;;14.12;100.00
71105;BME280;58760;48.716;8.962;2023-08-06T07:33:23;95684.78;;;14.04;100.00
71105;BME280;58760;48.716;8.962;2023-08-06T07:35:48;95677.56;;;14.05;100.00
71105;BME280;58760;48.716;8.962;2023-08-06T07:38:14;95682.94;;;13.98;100.00
71105;BME280;58760;48.716;8.962;2023-08-06T07:40:39;95687.28;;;13.93;100.00
71105;BME280;58760;48.716;8.962;2023-08-06T07:43:05;95694.06;;;13.89;100.00
71105;BME280;58760;48.716;8.962;2023-08-06T07:45:37;95691.53;;;14.07;100.00
71105;BME280;58760;48.716;8.962;2023-08-06T07:48:02;95688.41;;;14.10;100.00
71105;BME280;58760;48.716;8.962;2023-08-06T07:50:28;95681.78;;;14.19;100.00
71105;BME280;58760;48.716;8.962;2023-08-06T07:52:53;95688.53;;;14.22;100.00
71105;BME280;58760;48.716;8.962;2023-08-06T07:55:19;95680.03;;;14.38;100.00
71105;BME280;58760;48.716;8.962;2023-08-06T07:57:44;95676.81;;;14.54;100.00
71105;BME280;58760;48.716;8.962;2023-08-06T08:00:10;95683.03;;;14.73;99.93
71105;BME280;58760;48.716;8.962;2023-08-06T08:02:35;95682.75;;;14.81;99.50
71105;BME280;58760;48.716;8.962;2023-08-06T08:05:01;95687.81;;;14.89;99.54
71105;BME280;58760;48.716;8.962;2023-08-06T08:07:26;95685.75;;;14.91;97.13
71105;BME280;58760;48.716;8.962;2023-08-06T08:09:54;95690.50;;;14.89;96.95
71105;BME280;58760;48.716;8.962;2023-08-06T08:12:20;95685.88;;;14.96;97.54
71105;BME280;58760;48.716;8.962;2023-08-06T08:14:45;95689.28;;;14.85;95.04
71105;BME280;58760;48.716;8.962;2023-08-06T08:17:10;95686.88;;;14.77;96.48
71105;BME280;58760;48.716;8.962;2023-08-06T08:19:36;95696.53;;;14.78;96.30
71105;BME280;58760;48.716;8.962;2023-08-06T08:22:02;95688.44;;;14.66;96.63
71105;BME280;58760;48.716;8.962;2023-08-06T08:24:28;95694.31;;;14.50;98.47
71105;BME280;58760;48.716;8.962;2023-08-06T08:26:56;95685.13;;;14.46;98.98
71105;BME280;58760;48.716;8.962;2023-08-06T08:29:21;95681.38;;;14.47;100.00
71105;BME280;58760;48.716;8.962;2023-08-06T08:31:47;95685.75;;;14.41;100.00
71105;BME280;58760;48.716;8.962;2023-08-06T08:34:15;95680.59;;;14.46;99.47
71105;BME280;58760;48.716;8.962;2023-08-06T08:36:40;95685.31;;;14.44;100.00
71105;BME280;58760;48.716;8.962;2023-08-06T08:39:05;95683.25;;;14.46;100.00
71105;BME280;58760;48.716;8.962;2023-08-06T08:41:32;95686.81;;;14.40;99.73
71105;BME280;58760;48.716;8.962;2023-08-06T08:43:59;95688.41;;;14.41;100.00
71105;BME280;58760;48.716;8.962;2023-08-06T08:46:29;95684.63;;;14.55;100.00
71105;BME280;58760;48.716;8.962;2023-08-06T08:48:56;95686.41;;;14.61;100.00
71105;BME280;58760;48.716;8.962;2023-08-06T08:51:25;95688.53;;;14.78;100.00
71105;BME280;58760;48.716;8.962;2023-08-06T08:53:52;95685.84;;;14.59;99.41
71105;BME280;58760;48.716;8.962;2023-08-06T08:56:19;95681.66;;;14.63;99.72
71105;BME280;58760;48.716;8.962;2023-08-06T08:58:47;95677.84;;;14.78;100.00
71105;BME280;58760;48.716;8.962;2023-08-06T09:01:13;95680.59;;;14.89;100.00
71105;BME280;58760;48.716;8.962;2023-08-06T09:03:40;95682.63;;;14.94;98.43
71105;BME280;58760;48.716;8.962;2023-08-06T09:06:06;95676.69;;;15.10;98.73
71105;BME280;58760;48.716;8.962;2023-08-06T09:08:36;95696.81;;;15.12;95.38
71105;BME280;58760;48.716;8.962;2023-08-06T09:11:04;95688.16;;;15.17;95.40
71105;BME280;58760;48.716;8.962;2023-08-06T09:13:30;95687.41;;;15.46;97.39
71105;BME280;58760;48.716;8.962;2023-08-06T09:15:55;95681.03;;;15.47;95.62
71105;BME280;58760;48.716;8.962;2023-08-06T09:18:29;95684.66;;;15.71;96.71
71105;BME280;58760;48.716;8.962;2023-08-06T09:20:56;95689.25;;;15.64;96.78
71105;BME280;58760;48.716;8.962;2023-08-06T09:23:28;95695.25;;;15.41;96.47
71105;BME280;58760;48.716;8.962;2023-08-06T09:25:54;95700.47;;;15.36;96.19
71105;BME280;58760;48.716;8.962;2023-08-06T09:28:20;95693.03;;;15.20;97.06
71105;BME280;58760;48.716;8.962;2023-08-06T09:30:47;95699.28;;;15.14;95.90
71105;BME280;58760;48.716;8.962;2023-08-06T09:33:17;95695.13;;;15.18;97.76
71105;BME280;58760;48.716;8.962;2023-08-06T09:35:42;95706.34;;;15.08;96.43
71105;BME280;58760;48.716;8.962;2023-08-06T09:38:09;95706.84;;;15.17;97.53
71105;BME280;58760;48.716;8.962;2023-08-06T09:40:36;95707.00;;;15.22;98.11
71105;BME280;58760;48.716;8.962;2023-08-06T09:43:02;95715.19;;;15.27;97.84
71105;BME280;58760;48.716;8.962;2023-08-06T09:45:35;95714.44;;;15.20;97.63
71105;BME280;58760;48.716;8.962;2023-08-06T09:48:07;95707.81;;;15.04;98.51
71105;BME280;58760;48.716;8.962;2023-08-06T09:50:34;95707.94;;;15.09;98.49
71105;BME280;58760;48.716;8.962;2023-08-06T09:53:07;95709.22;;;15.07;99.49
71105;BME280;58760;48.716;8.962;2023-08-06T09:55:33;95710.91;;;15.01;100.00
71105;BME280;58760;48.716;8.962;2023-08-06T09:58:00;95716.00;;;14.85;100.00
71105;BME280;58760;48.716;8.962;2023-08-06T10:00:26;95724.47;;;14.82;100.00
71105;BME280;58760;48.716;8.962;2023-08-06T10:02:52;95724.03;;;14.85;100.00
71105;BME280;58760;48.716;8.962;2023-08-06T10:05:21;95720.47;;;14.91;100.00
71105;BME280;58760;48.716;8.962;2023-08-06T10:07:48;95721.66;;;14.70;100.00
71105;BME280;58760;48.716;8.962;2023-08-06T10:10:15;95722.81;;;14.56;100.00
71105;BME280;58760;48.716;8.962;2023-08-06T10:12:46;95730.16;;;14.60;100.00
71105;BME280;58760;48.716;8.962;2023-08-06T10:15:15;95737.00;;;14.56;100.00
71105;BME280;58760;48.716;8.962;2023-08-06T10:17:42;95732.41;;;14.32;100.00
71105;BME280;58760;48.716;8.962;2023-08-06T10:20:09;95742.38;;;14.12;100.00
71105;BME280;58760;48.716;8.962;2023-08-06T10:22:35;95737.03;;;14.12;100.00
71105;BME280;58760;48.716;8.962;2023-08-06T10:25:01;95739.75;;;14.05;100.00
71105;BME280;58760;48.716;8.962;2023-08-06T10:27:40;95743.66;;;14.03;100.00
71105;BME280;58760;48.716;8.962;2023-08-06T10:32:53;95753.94;;;13.99;100.00
71105;BME280;58760;48.716;8.962;2023-08-06T10:35:40;95760.41;;;14.17;100.00
71105;BME280;58760;48.716;8.962;2023-08-06T10:40:35;95750.56;;;14.17;100.00
71105;BME280;58760;48.716;8.962;2023-08-06T10:43:02;95768.56;;;14.28;100.00
71105;BME280;58760;48.716;8.962;2023-08-06T10:45:28;95758.31;;;14.25;100.00
71105;BME280;58760;48.716;8.962;2023-08-06T10:47:57;95762.09;;;14.11;100.00
71105;BME280;58760;48.716;8.962;2023-08-06T10:50:23;95758.66;;;14.04;100.00
71105;BME280;58760;48.716;8.962;2023-08-06T10:52:49;95763.66;;;14.25;100.00
71105;BME280;58760;48.716;8.962;2023-08-06T10:55:22;95765.06;;;14.34;100.00
71105;BME280;58760;48.716;8.962;2023-08-06T10:57:48;95767.91;;;14.39;100.00
71105;BME280;58760;48.716;8.962;2023-08-06T11:00:14;95778.00;;;14.24;100.00
71105;BME280;58760;48.716;8.962;2023-08-06T11:02:39;95781.34;;;14.20;100.00
71105;BME280;58760;48.716;8.962;2023-08-06T11:05:08;95779.63;;;14.32;100.00
71105;BME280;58760;48.716;8.962;2023-08-06T11:07:35;95791.75;;;14.28;100.00
71105;BME280;58760;48.716;8.962;2023-08-06T11:10:05;95791.53;;;14.29;100.00
71105;BME280;58760;48.716;8.962;2023-08-06T11:12:31;95804.09;;;14.22;100.00
71105;BME280;58760;48.716;8.962;2023-08-06T11:14:57;95787.97;;;14.10;100.00
71105;BME280;58760;48.716;8.962;2023-08-06T11:17:23;95795.34;;;14.08;100.00
71105;BME280;58760;48.716;8.962;2023-08-06T11:19:48;95803.13;;;14.10;100.00
71105;BME280;58760;48.716;8.962;2023-08-06T11:22:14;95796.59;;;14.06;100.00
71105;BME280;58760;48.716;8.962;2023-08-06T11:24:40;95807.75;;;13.90;100.00
71105;BME280;58760;48.716;8.962;2023-08-06T11:27:16;95796.28;;;13.83;100.00
71105;BME280;58760;48.716;8.962;2023-08-06T11:29:42;95796.03;;;13.91;100.00
71105;BME280;58760;48.716;8.962;2023-08-06T11:32:08;95804.25;;;13.89;100.00
71105;BME280;58760;48.716;8.962;2023-08-06T11:34:34;95797.44;;;14.00;100.00
71105;BME280;58760;48.716;8.962;2023-08-06T11:37:00;95816.72;;;14.02;100.00
71105;BME280;58760;48.716;8.962;2023-08-06T11:39:25;95819.81;;;13.92;100.00
71105;BME280;58760;48.716;8.962;2023-08-06T11:41:51;95826.69;;;13.75;98.29
71105;BME280;58760;48.716;8.962;2023-08-06T11:44:20;95817.63;;;13.76;100.00
71105;BME280;58760;48.716;8.962;2023-08-06T11:46:54;95817.19;;;13.79;100.00
71105;BME280;58760;48.716;8.962;2023-08-06T11:49:39;95817.63;;;13.76;97.71
71105;BME280;58760;48.716;8.962;2023-08-06T11:52:19;95818.25;;;13.78;100.00
71105;BME280;58760;48.716;8.962;2023-08-06T11:54:47;95841.38;;;13.91;96.71
71105;BME280;58760;48.716;8.962;2023-08-06T11:57:12;95842.19;;;13.98;96.20
71105;BME280;58760;48.716;8.962;2023-08-06T11:59:38;95842.97;;;14.05;98.11
71105;BME280;58760;48.716;8.962;2023-08-06T12:02:05;95851.16;;;14.10;96.13
71105;BME280;58760;48.716;8.962;2023-08-06T12:05:02;95847.53;;;13.98;97.08
71105;BME280;58760;48.716;8.962;2023-08-06T12:07:30;95850.44;;;13.77;94.28
71105;BME280;58760;48.716;8.962;2023-08-06T12:09:56;95874.28;;;13.72;94.68
71105;BME280;58760;48.716;8.962;2023-08-06T12:12:23;95880.41;;;13.66;96.00
71105;BME280;58760;48.716;8.962;2023-08-06T12:14:48;95866.72;;;13.49;96.78
71105;BME280;58760;48.716;8.962;2023-08-06T12:17:13;95877.97;;;13.51;99.11
71105;BME280;58760;48.716;8.962;2023-08-06T12:19:39;95871.63;;;13.58;96.00
71105;BME280;58760;48.716;8.962;2023-08-06T12:22:04;95879.16;;;13.88;94.59
71105;BME280;58760;48.716;8.962;2023-08-06T12:24:29;95873.97;;;13.99;91.54
71105;BME280;58760;48.716;8.962;2023-08-06T12:26:59;95859.38;;;14.08;91.75
71105;BME280;58760;48.716;8.962;2023-08-06T12:29:27;95873.06;;;14.25;90.91
71105;BME280;58760;48.716;8.962;2023-08-06T12:31:53;95870.38;;;14.25;89.62
71105;BME280;58760;48.716;8.962;2023-08-06T12:34:18;95868.72;;;14.31;90.66
71105;BME280;58760;48.716;8.962;2023-08-06T12:36:44;95871.00;;;14.40;91.56
71105;BME280;58760;48.716;8.962;2023-08-06T12:39:09;95879.97;;;14.52;90.55
71105;BME280;58760;48.716;8.962;2023-08-06T12:41:35;95870.34;;;14.45;88.25
71105;BME280;58760;48.716;8.962;2023-08-06T12:44:01;95881.78;;;14.58;89.51
71105;BME280;58760;48.716;8.962;2023-08-06T12:46:26;95881.69;;;14.72;87.91
71105;BME280;58760;48.716;8.962;2023-08-06T12:48:52;95875.97;;;14.68;85.87
71105;BME280;58760;48.716;8.962;2023-08-06T12:51:17;95877.56;;;14.76;84.12
71105;BME280;58760;48.716;8.962;2023-08-06T12:53:43;95877.53;;;14.82;82.44
71105;BME280;58760;48.716;8.962;2023-08-06T12:56:08;95875.88;;;14.81;82.28
71105;BME280;58760;48.716;8.962;2023-08-06T12:58:33;95884.09;;;14.80;82.02
71105;BME280;58760;48.716;8.962;2023-08-06T13:00:59;95867.91;;;14.75;83.24
71105;BME280;58760;48.716;8.962;2023-08-06T13:03:24;95886.25;;;14.96;84.07